createdAt,value
2023-01-07T00:01:39.697Z,94723.19
2023-01-07T00:04:08.590Z,94717.00
2023-01-07T00:06:37.157Z,94726.22
2023-01-07T00:09:05.462Z,94724.72
2023-01-07T00:11:35.347Z,94716.91
2023-01-07T00:14:04.888Z,94711.13
2023-01-07T00:16:33.162Z,94719.13
2023-01-07T00:19:01.789Z,94711.75
2023-01-07T00:21:29.168Z,94714.97
2023-01-07T00:23:58.140Z,94705.25
2023-01-07T00:26:29.225Z,94702.44
2023-01-07T00:28:56.021Z,94705.47
2023-01-07T00:31:34.372Z,94707.53
2023-01-07T00:34:01.478Z,94697.88
2023-01-07T00:36:34.253Z,94695.38
2023-01-07T00:39:13.213Z,94692.00
2023-01-07T00:41:40.385Z,94688.28
2023-01-07T00:44:07.847Z,94685.63
2023-01-07T00:46:34.857Z,94689.78
2023-01-07T00:49:02.079Z,94686.88
2023-01-07T00:51:28.972Z,94686.72
2023-01-07T00:53:55.646Z,94686.22
2023-01-07T00:56:22.428Z,94685.66
2023-01-07T00:58:49.168Z,94685.72
2023-01-07T01:01:17.432Z,94684.41
2023-01-07T01:03:45.394Z,94675.06
2023-01-07T01:06:15.637Z,94675.50
2023-01-07T01:08:47.356Z,94673.91
2023-01-07T01:11:14.937Z,94678.66
2023-01-07T01:13:42.818Z,94676.25
2023-01-07T01:16:12.947Z,94670.69
2023-01-07T01:18:40.104Z,94670.25
2023-01-07T01:21:10.357Z,94663.53
2023-01-07T01:23:37.610Z,94659.09
2023-01-07T01:26:10.640Z,94664.63
2023-01-07T01:28:37.916Z,94663.09
2023-01-07T01:31:05.612Z,94668.53
2023-01-07T01:33:42.479Z,94666.69
2023-01-07T01:36:13.010Z,94672.63
2023-01-07T01:38:40.761Z,94671.53
2023-01-07T01:41:08.067Z,94664.03
2023-01-07T01:43:40.484Z,94667.59
2023-01-07T01:46:17.456Z,94666.31
2023-01-07T01:48:53.512Z,94662.09
2023-01-07T01:51:25.037Z,94656.03
2023-01-07T01:53:52.825Z,94657.63
2023-01-07T01:56:30.175Z,94658.16
2023-01-07T01:59:02.245Z,94654.81
2023-01-07T02:01:31.204Z,94652.41
2023-01-07T02:03:58.083Z,94649.75
2023-01-07T02:06:29.144Z,94648.44
2023-01-07T02:08:56.013Z,94641.53
2023-01-07T02:11:37.298Z,94635.28
2023-01-07T02:14:14.705Z,94643.00
2023-01-07T02:16:53.532Z,94636.03
2023-01-07T02:19:42.098Z,94631.84
2023-01-07T02:22:24.632Z,94631.06
2023-01-07T02:25:36.209Z,94629.06
2023-01-07T02:28:20.534Z,94629.16
2023-01-07T02:31:34.935Z,94621.13
2023-01-07T02:34:19.713Z,94618.78
2023-01-07T02:37:10.370Z,94607.53
2023-01-07T02:40:01.975Z,94605.38
2023-01-07T02:42:34.629Z,94605.31
2023-01-07T02:45:04.735Z,94601.22
2023-01-07T02:47:37.449Z,94591.72
2023-01-07T02:50:07.406Z,94597.41
2023-01-07T02:52:35.832Z,94598.91
2023-01-07T02:55:05.867Z,94599.81
2023-01-07T02:57:54.611Z,94601.81
2023-01-07T03:01:06.642Z,94585.53
2023-01-07T03:03:42.413Z,94589.25
2023-01-07T03:06:12.140Z,94586.66
2023-01-07T03:08:54.007Z,94580.03
2023-01-07T03:11:25.141Z,94579.38
2023-01-07T03:14:05.381Z,94570.78
2023-01-07T03:16:32.281Z,94569.34
2023-01-07T03:19:03.026Z,94569.47
2023-01-07T03:21:33.666Z,94559.91
2023-01-07T03:24:02.107Z,94551.81
2023-01-07T03:26:39.160Z,94547.16
2023-01-07T03:29:08.832Z,94552.09
2023-01-07T03:31:38.759Z,94542.09
2023-01-07T03:34:12.433Z,94547.09
2023-01-07T03:36:45.711Z,94545.69
2023-01-07T03:39:14.910Z,94542.75
2023-01-07T03:42:00.919Z,94534.16
2023-01-07T03:44:28.137Z,94532.13
2023-01-07T03:46:54.921Z,94527.44
2023-01-07T03:49:21.517Z,94524.66
2023-01-07T03:51:49.516Z,94526.38
2023-01-07T03:54:16.878Z,94525.03
2023-01-07T03:56:43.524Z,94515.44
2023-01-07T03:59:10.172Z,94509.63
2023-01-07T04:01:37.113Z,94510.81
2023-01-07T04:04:04.092Z,94503.38
2023-01-07T04:06:32.260Z,94508.50
2023-01-07T04:08:59.052Z,94503.94
2023-01-07T04:11:25.826Z,94503.50
2023-01-07T04:13:53.739Z,94508.16
2023-01-07T04:16:20.870Z,94504.19
2023-01-07T04:18:48.009Z,94491.03
2023-01-07T04:21:15.166Z,94490.28
2023-01-07T04:23:41.816Z,94488.28
2023-01-07T04:26:10.145Z,94492.63
2023-01-07T04:28:38.744Z,94492.50
2023-01-07T04:31:05.709Z,94490.63
2023-01-07T04:33:35.893Z,94489.34
2023-01-07T04:36:03.191Z,94484.94
2023-01-07T04:38:30.444Z,94483.34
2023-01-07T04:40:57.212Z,94484.59
2023-01-07T04:43:24.151Z,94479.34
2023-01-07T04:45:50.848Z,94483.19
2023-01-07T04:48:18.712Z,94476.97
2023-01-07T04:50:47.711Z,94474.50
2023-01-07T04:53:16.489Z,94474.63
2023-01-07T04:55:46.439Z,94466.22
2023-01-07T04:58:13.994Z,94463.56
2023-01-07T05:00:40.915Z,94462.06
2023-01-07T05:03:08.186Z,94458.75
2023-01-07T05:05:35.653Z,94450.22
2023-01-07T05:08:03.674Z,94447.50
2023-01-07T05:10:31.309Z,94453.19
2023-01-07T05:12:58.116Z,94439.94
2023-01-07T05:15:25.630Z,94443.41
2023-01-07T05:17:54.210Z,94437.66
2023-01-07T05:20:23.271Z,94433.88
2023-01-07T05:22:50.376Z,94438.75
2023-01-07T05:25:18.357Z,94441.53
2023-01-07T05:27:45.278Z,94430.38
2023-01-07T05:30:12.404Z,94442.72
2023-01-07T05:32:39.048Z,94425.00
2023-01-07T05:35:06.172Z,94433.50
2023-01-07T05:37:32.968Z,94430.31
2023-01-07T05:39:59.948Z,94430.25
2023-01-07T05:42:26.674Z,94419.84
2023-01-07T05:44:53.791Z,94423.31
2023-01-07T05:47:20.603Z,94420.94
2023-01-07T05:49:47.265Z,94416.84
2023-01-07T05:52:13.951Z,94411.75
2023-01-07T05:54:40.782Z,94409.91
2023-01-07T05:57:07.411Z,94413.31
2023-01-07T05:59:34.832Z,94406.19
2023-01-07T06:02:02.347Z,94412.00
2023-01-07T06:04:29.283Z,94410.50
2023-01-07T06:06:56.040Z,94409.28
2023-01-07T06:09:22.829Z,94399.63
2023-01-07T06:11:49.473Z,94402.78
2023-01-07T06:14:16.144Z,94407.91
2023-01-07T06:16:42.815Z,94409.03
2023-01-07T06:19:10.721Z,94410.13
2023-01-07T06:21:37.441Z,94403.84
2023-01-07T06:24:04.440Z,94412.78
2023-01-07T06:26:31.118Z,94412.00
2023-01-07T06:28:57.767Z,94410.50
2023-01-07T06:31:24.455Z,94405.19
2023-01-07T06:33:51.090Z,94397.41
2023-01-07T06:36:17.741Z,94406.69
2023-01-07T06:38:44.530Z,94398.97
2023-01-07T06:41:11.259Z,94396.25
2023-01-07T06:43:38.005Z,94398.53
2023-01-07T06:46:04.930Z,94395.09
2023-01-07T06:48:31.567Z,94399.78
2023-01-07T06:50:58.327Z,94399.56
2023-01-07T06:53:25.003Z,94396.00
2023-01-07T06:55:51.909Z,94392.44
2023-01-07T06:58:18.771Z,94383.09
2023-01-07T07:00:46.605Z,94386.84
2023-01-07T07:03:13.642Z,94384.25
2023-01-07T07:05:40.409Z,94385.38
2023-01-07T07:08:07.100Z,94388.53
2023-01-07T07:10:33.977Z,94383.03
2023-01-07T07:13:00.653Z,94383.75
2023-01-07T07:15:27.639Z,94384.47
2023-01-07T07:17:54.246Z,94376.03
2023-01-07T07:20:20.876Z,94375.97
2023-01-07T07:22:48.443Z,94380.38
2023-01-07T07:25:15.801Z,94381.91
2023-01-07T07:27:46.089Z,94372.22
2023-01-07T07:30:15.179Z,94377.22
2023-01-07T07:32:42.838Z,94371.78
2023-01-07T07:35:10.771Z,94368.22
2023-01-07T07:37:37.936Z,94367.13
2023-01-07T07:40:06.534Z,94371.53
2023-01-07T07:43:09.615Z,94378.81
2023-01-07T07:45:20.091Z,94367.63
2023-01-07T07:47:47.090Z,94361.75
2023-01-07T07:50:13.758Z,94365.22
2023-01-07T07:52:40.925Z,94372.63
2023-01-07T07:55:20.454Z,94370.66
2023-01-07T07:57:57.203Z,94368.75
2023-01-07T08:00:24.468Z,94360.41
2023-01-07T08:02:51.198Z,94357.28
2023-01-07T08:05:18.033Z,94362.66
2023-01-07T08:07:44.739Z,94353.72
2023-01-07T08:10:11.420Z,94351.22
2023-01-07T08:12:39.016Z,94351.53
2023-01-07T08:15:07.138Z,94352.19
2023-01-07T08:17:36.444Z,94352.00
2023-01-07T08:20:07.985Z,94354.97
2023-01-07T08:22:35.039Z,94349.50
2023-01-07T08:25:01.934Z,94344.19
2023-01-07T08:27:29.342Z,94349.50
2023-01-07T08:29:56.503Z,94347.53
2023-01-07T08:32:23.327Z,94345.66
2023-01-07T08:34:50.218Z,94352.38
2023-01-07T08:37:16.983Z,94342.50
2023-01-07T08:39:43.701Z,94344.41
2023-01-07T08:42:10.356Z,94343.13
2023-01-07T08:44:37.122Z,94339.72
2023-01-07T08:47:03.821Z,94337.16
2023-01-07T08:49:31.749Z,94332.28
2023-01-07T08:51:58.445Z,94328.09
2023-01-07T08:54:25.129Z,94332.41
2023-01-07T08:56:51.761Z,94332.84
2023-01-07T08:59:18.464Z,94333.00
2023-01-07T09:01:45.343Z,94326.47
2023-01-07T09:04:12.130Z,94319.94
2023-01-07T09:06:38.780Z,94316.56
2023-01-07T09:09:05.502Z,94308.81
2023-01-07T09:11:32.334Z,94309.66
2023-01-07T09:13:59.213Z,94310.09
2023-01-07T09:16:25.982Z,94315.97
2023-01-07T09:18:52.623Z,94306.72
2023-01-07T09:21:19.301Z,94308.69
2023-01-07T09:23:45.960Z,94315.34
2023-01-07T09:26:12.610Z,94309.56
2023-01-07T09:28:39.306Z,94312.28
2023-01-07T09:31:07.127Z,94303.81
2023-01-07T09:33:33.952Z,94303.94
2023-01-07T09:36:00.735Z,94303.94
2023-01-07T09:38:27.709Z,94295.06
2023-01-07T09:40:55.784Z,94303.38
2023-01-07T09:43:59.481Z,94300.22
2023-01-07T09:46:28.593Z,94304.22
2023-01-07T09:49:01.639Z,94305.47
2023-01-07T09:51:38.152Z,94295.75
2023-01-07T09:54:13.216Z,94298.97
2023-01-07T09:56:40.391Z,94296.72
2023-01-07T09:59:10.409Z,94291.81
2023-01-07T10:01:47.600Z,94299.56
2023-01-07T10:04:23.427Z,94292.16
2023-01-07T10:07:16.021Z,94287.66
2023-01-07T10:09:57.851Z,94282.16
2023-01-07T10:12:25.762Z,94274.03
2023-01-07T10:15:00.261Z,94272.09
2023-01-07T10:18:04.228Z,94271.47
2023-01-07T10:20:47.395Z,94268.06
2023-01-07T10:23:19.595Z,94252.59
2023-01-07T10:25:50.342Z,94245.25
2023-01-07T10:28:32.259Z,94234.69
2023-01-07T10:31:00.479Z,94232.84
2023-01-07T10:33:30.937Z,94234.81
2023-01-07T10:36:38.386Z,94228.66
2023-01-07T10:39:11.278Z,94222.09
2023-01-07T10:42:15.861Z,94215.06
2023-01-07T10:44:42.483Z,94208.44
2023-01-07T10:47:09.117Z,94208.88
2023-01-07T10:50:12.016Z,94197.19
2023-01-07T10:52:41.763Z,94197.19
2023-01-07T10:55:34.072Z,94192.97
2023-01-07T10:58:02.461Z,94183.66
2023-01-07T11:00:29.338Z,94180.88
2023-01-07T11:03:00.037Z,94183.63
2023-01-07T11:05:37.231Z,94179.41
2023-01-07T11:08:11.095Z,94168.88
2023-01-07T11:10:37.964Z,94168.88
2023-01-07T11:13:27.246Z,94175.56
2023-01-07T11:16:17.110Z,94169.28
2023-01-07T11:19:01.057Z,94157.22
2023-01-07T11:21:43.416Z,94162.66
2023-01-07T11:24:31.376Z,94163.06
2023-01-07T11:27:13.319Z,94161.88
2023-01-07T11:29:46.493Z,94143.53
2023-01-07T11:32:28.511Z,94142.38
2023-01-07T11:35:06.044Z,94139.63
2023-01-07T11:37:32.959Z,94122.44
2023-01-07T11:40:02.304Z,94131.03
2023-01-07T11:42:38.449Z,94125.97
2023-01-07T11:45:14.644Z,94114.19
2023-01-07T11:48:00.782Z,94108.69
2023-01-07T11:50:35.039Z,94112.19
2023-01-07T11:53:14.065Z,94095.38
2023-01-07T11:56:08.945Z,94105.09
2023-01-07T11:58:43.388Z,94094.13
2023-01-07T12:01:10.323Z,94089.78
2023-01-07T12:03:43.511Z,94088.56
2023-01-07T12:06:38.138Z,94073.94
2023-01-07T12:09:31.401Z,94067.25
2023-01-07T12:12:06.731Z,94056.97
2023-01-07T12:14:38.994Z,94062.72
2023-01-07T12:17:16.263Z,94054.03
2023-01-07T12:20:21.692Z,94053.28
2023-01-07T12:22:58.449Z,94042.47
2023-01-07T12:26:08.886Z,94034.06
2023-01-07T12:28:53.957Z,94038.50
2023-01-07T12:31:39.378Z,94028.41
2023-01-07T12:34:35.450Z,94020.78
2023-01-07T12:37:10.088Z,94026.56
2023-01-07T12:39:44.337Z,94019.25
2023-01-07T12:42:35.010Z,94020.94
2023-01-07T12:45:05.090Z,94015.88
2023-01-07T12:47:39.708Z,94007.59
2023-01-07T12:50:18.382Z,94008.72
2023-01-07T12:52:53.359Z,94010.09
2023-01-07T12:55:33.798Z,94002.41
2023-01-07T12:58:08.924Z,93994.03
2023-01-07T13:00:43.125Z,93996.81
2023-01-07T13:03:22.502Z,93988.16
2023-01-07T13:05:59.826Z,93980.81
2023-01-07T13:09:24.003Z,93976.59
2023-01-07T13:12:42.273Z,93979.44
2023-01-07T13:15:10.329Z,93980.03
2023-01-07T13:17:37.367Z,93972.41
2023-01-07T13:20:11.449Z,93963.75
2023-01-07T13:23:00.882Z,93962.94
2023-01-07T13:25:45.618Z,93955.44
2023-01-07T13:28:39.724Z,93973.09
2023-01-07T13:31:12.371Z,93960.53
2023-01-07T13:34:04.306Z,93956.78
2023-01-07T13:36:50.054Z,93947.63
2023-01-07T13:39:39.685Z,93954.03
2023-01-07T13:42:34.520Z,93960.03
2023-01-07T13:45:32.974Z,93946.44
2023-01-07T13:48:05.698Z,93954.56
2023-01-07T13:50:38.029Z,93948.78
2023-01-07T13:53:32.477Z,93946.81
2023-01-07T13:56:17.772Z,93947.81
2023-01-07T13:58:55.620Z,93958.63
2023-01-07T14:01:30.767Z,93957.41
2023-01-07T14:04:04.006Z,93956.56
2023-01-07T14:06:44.874Z,93951.31
2023-01-07T14:09:19.355Z,93955.44
2023-01-07T14:12:23.683Z,93950.41
2023-01-07T14:15:27.840Z,93953.19
2023-01-07T14:18:03.536Z,93948.25
2023-01-07T14:20:53.039Z,93949.22
2023-01-07T14:23:31.264Z,93951.69
2023-01-07T14:26:25.885Z,93954.97
2023-01-07T14:29:05.580Z,93954.06
2023-01-07T14:31:32.516Z,93956.91
2023-01-07T14:34:05.400Z,93950.38
2023-01-07T14:37:08.521Z,93949.69
2023-01-07T14:39:46.198Z,93958.41
2023-01-07T14:42:18.891Z,93955.00
2023-01-07T14:44:46.831Z,93951.97
2023-01-07T14:47:34.734Z,93956.75
2023-01-07T14:50:04.713Z,93961.59
2023-01-07T14:52:47.084Z,93964.38
2023-01-07T14:55:52.404Z,93962.53
2023-01-07T14:58:55.718Z,93963.75
2023-01-07T15:01:34.926Z,93975.06
2023-01-07T15:04:08.009Z,93960.69
2023-01-07T15:06:36.669Z,93971.22
2023-01-07T15:09:39.195Z,93977.47
2023-01-07T15:12:38.163Z,93969.25
2023-01-07T15:15:28.973Z,93968.50
2023-01-07T15:17:56.495Z,93969.28
2023-01-07T15:20:37.695Z,93978.25
2023-01-07T15:23:21.873Z,93982.53
2023-01-07T15:25:59.743Z,93972.38
2023-01-07T15:28:32.828Z,93963.03
2023-01-07T15:31:19.874Z,93969.66
2023-01-07T15:34:15.458Z,93972.31
2023-01-07T15:36:45.246Z,93975.75
2023-01-07T15:39:19.618Z,93965.56
2023-01-07T15:41:46.826Z,93961.66
2023-01-07T15:44:18.920Z,93958.19
2023-01-07T15:46:45.623Z,93965.53
2023-01-07T15:49:13.971Z,93970.94
2023-01-07T15:51:52.027Z,93964.31
2023-01-07T15:54:35.879Z,93959.22
2023-01-07T15:57:30.198Z,93971.97
2023-01-07T15:59:57.548Z,93964.16
2023-01-07T16:02:33.284Z,93966.00
2023-01-07T16:05:06.420Z,93967.13
2023-01-07T16:07:40.540Z,93964.72
2023-01-07T16:10:07.750Z,93962.38
2023-01-07T16:12:35.948Z,93964.09
2023-01-07T16:15:21.857Z,93959.53
2023-01-07T16:17:53.395Z,93955.28
2023-01-07T16:20:25.050Z,93943.97
2023-01-07T16:23:15.075Z,93950.47
2023-01-07T16:25:52.651Z,93946.94
2023-01-07T16:28:29.575Z,93941.31
2023-01-07T16:30:57.682Z,93941.47
2023-01-07T16:33:28.369Z,93936.44
2023-01-07T16:36:01.065Z,93948.16
2023-01-07T16:38:28.657Z,93941.88
2023-01-07T16:40:56.060Z,93949.94
2023-01-07T16:43:45.772Z,93951.34
2023-01-07T16:46:26.097Z,93951.22
2023-01-07T16:49:11.191Z,93944.56
2023-01-07T16:51:42.947Z,93939.13
2023-01-07T16:54:21.836Z,93949.06
2023-01-07T16:56:51.631Z,93950.84
2023-01-07T16:59:20.538Z,93943.38
2023-01-07T17:01:47.918Z,93934.75
2023-01-07T17:04:23.212Z,93943.22
2023-01-07T17:06:50.697Z,93933.13
2023-01-07T17:09:34.444Z,93926.84
2023-01-07T17:12:02.045Z,93925.56
2023-01-07T17:14:35.342Z,93926.63
2023-01-07T17:17:17.228Z,93932.75
2023-01-07T17:20:04.016Z,93928.06
2023-01-07T17:22:33.883Z,93923.97
2023-01-07T17:25:08.920Z,93918.41
2023-01-07T17:27:49.763Z,93921.41
2023-01-07T17:30:19.558Z,93924.97
2023-01-07T17:32:49.940Z,93931.53
2023-01-07T17:35:22.394Z,93929.22
2023-01-07T17:37:49.524Z,93939.91
2023-01-07T17:40:17.397Z,93938.31
2023-01-07T17:43:04.777Z,93940.19
2023-01-07T17:45:31.861Z,93926.69
2023-01-07T17:47:59.926Z,93934.66
2023-01-07T17:50:34.240Z,93940.06
2023-01-07T17:53:01.073Z,93940.06
2023-01-07T17:55:34.301Z,93935.38
2023-01-07T17:58:01.006Z,93936.88
2023-01-07T18:00:30.833Z,93933.78
2023-01-07T18:02:58.507Z,93939.97
2023-01-07T18:05:26.668Z,93936.22
2023-01-07T18:07:53.791Z,93928.03
2023-01-07T18:10:26.083Z,93932.22
2023-01-07T18:12:52.792Z,93932.50
2023-01-07T18:15:25.448Z,93941.38
2023-01-07T18:17:52.662Z,93931.13
2023-01-07T18:20:21.654Z,93946.91
2023-01-07T18:22:49.796Z,93942.94
2023-01-07T18:25:19.682Z,93941.47
2023-01-07T18:27:49.376Z,93946.06
2023-01-07T18:30:19.420Z,93947.53
2023-01-07T18:32:46.553Z,93943.25
2023-01-07T18:35:14.234Z,93947.47
2023-01-07T18:37:41.283Z,93942.94
2023-01-07T18:40:09.305Z,93942.47
2023-01-07T18:42:36.263Z,93939.53
2023-01-07T18:45:03.937Z,93939.47
2023-01-07T18:47:30.574Z,93930.66
2023-01-07T18:49:57.392Z,93930.31
2023-01-07T18:52:24.142Z,93937.69
2023-01-07T18:54:50.948Z,93931.88
2023-01-07T18:57:17.607Z,93933.72
2023-01-07T18:59:44.443Z,93929.81
2023-01-07T19:02:16.208Z,93936.44
2023-01-07T19:04:42.760Z,93930.84
2023-01-07T19:07:09.881Z,93936.16
2023-01-07T19:09:36.603Z,93935.72
2023-01-07T19:12:04.074Z,93930.53
2023-01-07T19:14:30.740Z,93932.41
2023-01-07T19:16:57.632Z,93934.63
2023-01-07T19:19:24.351Z,93930.06
2023-01-07T19:21:51.199Z,93932.47
2023-01-07T19:24:17.959Z,93923.50
2023-01-07T19:26:46.797Z,93929.50
2023-01-07T19:29:14.180Z,93925.31
2023-01-07T19:31:43.125Z,93921.69
2023-01-07T19:34:09.935Z,93921.31
2023-01-07T19:36:36.655Z,93928.16
2023-01-07T19:39:04.496Z,93929.56
2023-01-07T19:41:33.017Z,93922.66
2023-01-07T19:44:00.854Z,93920.72
2023-01-07T19:46:28.395Z,93921.03
2023-01-07T19:48:55.146Z,93917.84
2023-01-07T19:51:23.071Z,93917.84
2023-01-07T19:53:50.632Z,93914.56
2023-01-07T19:56:17.280Z,93905.31
2023-01-07T19:58:44.001Z,93897.56
2023-01-07T20:01:17.504Z,93900.91
2023-01-07T20:03:44.919Z,93898.88
2023-01-07T20:06:16.181Z,93899.53
2023-01-07T20:08:43.247Z,93888.00
2023-01-07T20:11:10.705Z,93882.22
2023-01-07T20:13:39.145Z,93878.31
2023-01-07T20:16:12.469Z,93883.22
2023-01-07T20:18:50.777Z,93880.53
2023-01-07T20:21:20.380Z,93874.63
2023-01-07T20:23:47.927Z,93876.63
2023-01-07T20:26:29.318Z,93875.03
2023-01-07T20:28:57.422Z,93870.78
2023-01-07T20:31:26.288Z,93880.75
2023-01-07T20:33:55.830Z,93876.69
2023-01-07T20:36:25.773Z,93870.56
2023-01-07T20:38:52.633Z,93877.41
2023-01-07T20:41:24.496Z,93871.94
2023-01-07T20:43:56.939Z,93863.31
2023-01-07T20:46:24.968Z,93861.63
2023-01-07T20:48:52.026Z,93868.88
2023-01-07T20:51:19.283Z,93858.16
2023-01-07T20:53:49.361Z,93858.47
2023-01-07T20:56:18.943Z,93859.22
2023-01-07T20:58:46.336Z,93859.13
2023-01-07T21:01:15.405Z,93855.16
2023-01-07T21:03:43.439Z,93849.94
2023-01-07T21:06:12.127Z,93849.69
2023-01-07T21:08:39.101Z,93844.81
2023-01-07T21:11:14.940Z,93835.88
2023-01-07T21:13:42.883Z,93840.00
2023-01-07T21:16:10.199Z,93835.38
2023-01-07T21:18:37.200Z,93829.03
2023-01-07T21:21:10.375Z,93835.59
2023-01-07T21:23:37.233Z,93839.50
2023-01-07T21:26:04.100Z,93841.44
2023-01-07T21:28:30.813Z,93845.31
2023-01-07T21:31:02.836Z,93841.94
2023-01-07T21:33:29.547Z,93840.78
2023-01-07T21:35:56.159Z,93836.78
2023-01-07T21:38:22.806Z,93841.00
2023-01-07T21:40:49.523Z,93837.81
2023-01-07T21:43:16.158Z,93834.00
2023-01-07T21:45:42.876Z,93837.38
2023-01-07T21:48:09.537Z,93819.22
2023-01-07T21:50:38.279Z,93818.47
2023-01-07T21:53:04.890Z,93814.91
2023-01-07T21:55:31.656Z,93813.31
2023-01-07T21:57:58.303Z,93814.75
2023-01-07T22:00:25.851Z,93812.91
2023-01-07T22:02:52.705Z,93825.16
2023-01-07T22:05:19.403Z,93823.59
2023-01-07T22:07:46.031Z,93823.66
2023-01-07T22:10:12.883Z,93817.19
2023-01-07T22:12:39.483Z,93816.09
2023-01-07T22:15:06.542Z,93817.72
2023-01-07T22:17:33.177Z,93823.44
2023-01-07T22:20:00.100Z,93824.38
2023-01-07T22:22:26.741Z,93827.53
2023-01-07T22:24:53.374Z,93814.16
2023-01-07T22:27:20.011Z,93820.84
2023-01-07T22:29:46.857Z,93818.06
2023-01-07T22:32:13.456Z,93821.50
2023-01-07T22:34:40.323Z,93825.56
2023-01-07T22:37:14.798Z,93819.25
2023-01-07T22:39:55.629Z,93816.66
2023-01-07T22:42:29.760Z,93812.03
2023-01-07T22:45:05.046Z,93823.91
2023-01-07T22:47:38.006Z,93813.75
2023-01-07T22:50:06.483Z,93819.38
2023-01-07T22:52:33.364Z,93800.53
2023-01-07T22:55:01.100Z,93800.53
2023-01-07T22:57:29.843Z,93792.69
2023-01-07T22:59:59.036Z,93801.28
2023-01-07T23:02:25.712Z,93795.88
2023-01-07T23:04:52.639Z,93799.66
2023-01-07T23:07:20.158Z,93787.56
2023-01-07T23:09:47.037Z,93779.91
2023-01-07T23:12:13.756Z,93787.63
2023-01-07T23:14:40.438Z,93786.63
2023-01-07T23:17:07.248Z,93788.72
2023-01-07T23:19:34.145Z,93785.50
2023-01-07T23:22:00.744Z,93782.81
2023-01-07T23:24:27.485Z,93788.56
2023-01-07T23:26:55.257Z,93782.03
2023-01-07T23:29:22.107Z,93768.47
2023-01-07T23:31:49.080Z,93768.47
2023-01-07T23:34:16.416Z,93767.63
2023-01-07T23:36:43.092Z,93761.78
2023-01-07T23:39:09.877Z,93752.88
2023-01-07T23:41:36.572Z,93750.53
2023-01-07T23:44:03.325Z,93756.38
2023-01-07T23:46:30.099Z,93762.72
2023-01-07T23:48:56.778Z,93765.72
2023-01-07T23:51:23.660Z,93762.00
2023-01-07T23:53:51.511Z,93757.00
2023-01-07T23:56:20.418Z,93752.94
2023-01-07T23:58:48.373Z,93754.81
